Time;durP1;ratioP1;P1;durP2;ratioP2;P2;SDS_P1;SDS_P2;PMS_P1;PMS_P2;Temp;Humidity;BMP_temperature;BMP_pressure;BME280_temperature;BME280_humidity;BME280_pressure;Samples;Min_cycle;Max_cycle;Signal;HPM_P1;HPM_P2
2023/02/07 00:02:14;;;;;;;35.45;17.42;;;;;;;-4.01;65.10;100022.97;10460820;28;20056;-76
2023/02/07 00:07:35;;;;;;;33.42;16.33;;;;;;;-4.01;64.29;100017.50;10460479;28;20120;-76
2023/02/07 00:12:56;;;;;;;34.65;16.17;;;;;;;-4.05;65.01;100031.28;10460652;28;20048;-76
2023/02/07 00:18:17;;;;;;;34.95;16.92;;;;;;;-4.04;64.66;100030.06;10460019;28;20037;-76
2023/02/07 00:23:38;;;;;;;35.92;17.02;;;;;;;-4.05;64.33;100023.84;10460051;28;20048;-76
2023/02/07 00:28:58;;;;;;;36.05;16.85;;;;;;;-4.10;64.41;100035.31;10459593;28;20055;-76
2023/02/07 00:34:19;;;;;;;32.55;16.90;;;;;;;-4.09;64.74;100045.00;10459201;28;20055;-76
2023/02/07 00:39:40;;;;;;;33.80;16.63;;;;;;;-4.09;64.59;100036.06;10458885;28;20654;-76
2023/02/07 00:45:01;;;;;;;33.38;17.48;;;;;;;-4.09;64.68;100033.34;10458907;28;20467;-76
2023/02/07 00:50:21;;;;;;;31.67;14.98;;;;;;;-4.13;64.84;100038.94;10458293;28;20036;-76
2023/02/07 00:55:43;;;;;;;40.17;17.50;;;;;;;-4.15;64.79;100035.88;10458948;28;20097;-76
2023/02/07 01:01:04;;;;;;;34.20;15.82;;;;;;;-4.14;64.54;100028.47;10458193;28;20078;-76
2023/02/07 01:06:26;;;;;;;38.22;17.90;;;;;;;-4.16;64.63;100030.84;10456934;28;20116;-76
2023/02/07 01:11:49;;;;;;;35.13;16.73;;;;;;;-4.21;64.84;100047.78;10460878;28;20045;-76
2023/02/07 01:17:11;;;;;;;33.97;17.00;;;;;;;-4.27;65.22;100044.06;10490820;28;20131;-76
2023/02/07 01:22:32;;;;;;;35.78;15.95;;;;;;;-4.29;64.64;100049.19;10499480;28;20406;-76
2023/02/07 01:27:52;;;;;;;38.60;17.33;;;;;;;-4.37;65.12;100041.22;10479835;28;20048;-76
2023/02/07 01:33:13;;;;;;;38.92;17.25;;;;;;;-4.48;64.40;100051.72;10479950;28;20045;-76
2023/02/07 01:38:34;;;;;;;34.03;16.48;;;;;;;-4.55;64.97;100046.47;10499955;28;20406;-76
2023/02/07 01:44:01;;;;;;;36.05;17.67;;;;;;;-4.63;65.05;100050.66;10486084;28;20143;-76
2023/02/07 01:49:29;;;;;;;34.42;16.73;;;;;;;-4.69;65.77;100042.22;10492808;28;20036;-76
2023/02/07 01:54:56;;;;;;;38.88;16.63;;;;;;;-4.74;65.43;100042.00;10479364;28;20070;-76
2023/02/07 02:00:18;;;;;;;33.95;17.33;;;;;;;-4.77;65.59;100040.91;10484004;28;20055;-76
2023/02/07 02:05:39;;;;;;;33.53;16.42;;;;;;;-4.77;65.58;100040.91;10455845;28;20114;-76
2023/02/07 02:11:15;;;;;;;35.30;17.17;;;;;;;-4.82;65.29;100032.53;10456178;28;20067;-76
2023/02/07 02:17:16;;;;;;;35.55;16.77;;;;;;;-4.86;65.43;100029.13;10483321;28;20471;-76
2023/02/07 02:22:49;;;;;;;31.38;15.43;;;;;;;-4.99;65.86;100023.69;10472553;28;20040;-76
2023/02/07 02:28:22;;;;;;;31.33;15.75;;;;;;;-5.00;65.52;100030.34;10482901;28;20060;-76
2023/02/07 02:34:13;;;;;;;36.20;17.50;;;;;;;-5.04;65.72;100026.94;10483297;28;20059;-76
2023/02/07 02:40:03;;;;;;;35.38;17.05;;;;;;;-5.16;65.53;100025.72;10482939;28;20055;-76
2023/02/07 02:45:30;;;;;;;34.28;16.50;;;;;;;-5.18;65.58;100022.69;10451727;28;20056;-76
2023/02/07 02:50:52;;;;;;;34.80;16.13;;;;;;;-5.18;65.60;100036.28;10455352;28;20033;-76
2023/02/07 02:56:27;;;;;;;34.70;16.88;;;;;;;-5.18;66.21;100039.00;10468966;28;20041;-76
2023/02/07 03:02:03;;;;;;;30.70;15.30;;;;;;;-5.26;65.70;100026.78;10468617;28;20053;-76
2023/02/07 03:07:37;;;;;;;36.55;17.40;;;;;;;-5.33;66.18;100016.84;10482192;28;20094;-76
2023/02/07 03:13:25;;;;;;;35.60;17.75;;;;;;;-5.30;66.35;100015.25;10468152;28;20407;-76
2023/02/07 03:18:58;;;;;;;37.75;18.08;;;;;;;-5.24;65.74;100005.34;10468452;28;20040;-76
2023/02/07 03:24:22;;;;;;;44.25;19.05;;;;;;;-5.31;65.92;100008.25;10482121;28;20065;-76
2023/02/07 03:29:45;;;;;;;41.53;19.58;;;;;;;-5.42;65.94;100024.13;10457526;28;20090;-76
2023/02/07 03:35:13;;;;;;;41.75;19.55;;;;;;;-5.42;66.62;100035.00;10476017;28;20036;-76
2023/02/07 03:40:44;;;;;;;36.42;18.27;;;;;;;-5.32;67.07;100042.13;10462202;28;20049;-76
2023/02/07 03:46:07;;;;;;;42.38;19.08;;;;;;;-5.34;66.75;100041.78;10461692;28;20041;-76
2023/02/07 03:51:29;;;;;;;42.83;20.30;;;;;;;-5.38;66.50;100047.34;10475267;28;20040;-76
2023/02/07 03:56:49;;;;;;;47.55;21.30;;;;;;;-5.43;67.69;100026.09;10460951;28;20044;-76
2023/02/07 04:02:10;;;;;;;45.08;20.63;;;;;;;-5.43;66.98;100023.38;10460727;28;20060;-76
2023/02/07 04:07:31;;;;;;;43.92;20.77;;;;;;;-5.45;67.31;100020.31;10474314;28;20047;-76
2023/02/07 04:12:52;;;;;;;42.45;20.23;;;;;;;-5.46;67.41;100021.50;10446473;28;20390;-76
2023/02/07 04:18:13;;;;;;;46.03;20.33;;;;;;;-5.50;67.27;100018.91;10460111;28;20048;-76
2023/02/07 04:23:34;;;;;;;44.15;19.95;;;;;;;-5.60;67.15;100003.59;10474165;28;20044;-76
2023/02/07 04:28:55;;;;;;;45.88;20.27;;;;;;;-5.62;67.80;100010.66;10473504;28;20048;-76
2023/02/07 04:34:16;;;;;;;43.15;19.95;;;;;;;-5.58;67.33;100014.06;10473289;28;20047;-76
2023/02/07 04:39:36;;;;;;;41.78;19.77;;;;;;;-5.59;67.40;100010.59;10458727;28;20068;-76
2023/02/07 04:44:57;;;;;;;43.78;19.92;;;;;;;-5.56;67.13;100019.84;10458536;28;20067;-76
2023/02/07 04:50:18;;;;;;;45.22;20.02;;;;;;;-5.60;67.83;100025.38;10457611;28;20037;-76
2023/02/07 04:55:39;;;;;;;39.95;18.50;;;;;;;-5.59;67.45;100031.59;10458337;28;20070;-76
2023/02/07 05:01:00;;;;;;;45.95;20.45;;;;;;;-5.60;67.54;100052.59;10459036;28;20049;-76
2023/02/07 05:06:21;;;;;;;43.75;21.25;;;;;;;-5.66;67.43;100065.19;10430677;28;20068;-77
2023/02/07 05:11:42;;;;;;;47.60;20.73;;;;;;;-5.70;67.73;100066.47;10430615;28;20410;-76
2023/02/07 05:17:04;;;;;;;44.88;21.33;;;;;;;-5.72;68.05;100072.34;10434229;28;20040;-76
2023/02/07 05:22:25;;;;;;;44.67;21.08;;;;;;;-5.73;67.60;100078.97;10451961;28;20044;-76
2023/02/07 05:27:45;;;;;;;53.63;24.45;;;;;;;-5.74;68.12;100080.19;10402526;28;20071;-77
2023/02/07 05:33:06;;;;;;;47.10;22.65;;;;;;;-5.74;68.32;100072.00;10415969;28;20045;-76
2023/02/07 05:38:27;;;;;;;56.33;25.98;;;;;;;-5.73;68.96;100087.16;10435319;28;20048;-77
2023/02/07 05:43:48;;;;;;;53.00;24.23;;;;;;;-5.75;68.26;100092.25;10456856;28;20071;-76
2023/02/07 05:49:09;;;;;;;47.38;23.92;;;;;;;-5.74;67.84;100082.91;10456696;28;20041;-77
2023/02/07 05:54:30;;;;;;;52.17;24.33;;;;;;;-5.69;67.96;100085.13;10435775;28;20056;-77
2023/02/07 05:59:51;;;;;;;54.65;25.35;;;;;;;-5.75;67.92;100084.09;10428651;28;20394;-77
2023/02/07 06:05:14;;;;;;;51.65;25.65;;;;;;;-5.85;67.71;100085.88;10464734;28;20052;-76
2023/02/07 06:10:35;;;;;;;53.60;24.73;;;;;;;-5.89;67.72;100100.75;10469798;28;20422;-76
2023/02/07 06:15:56;;;;;;;54.88;26.83;;;;;;;-5.80;68.62;100074.47;10470065;28;20390;-76
2023/02/07 06:21:17;;;;;;;57.38;27.70;;;;;;;-5.78;68.30;100080.28;10483566;28;20044;-76
2023/02/07 06:26:37;;;;;;;48.83;24.70;;;;;;;-5.76;68.43;100071.69;10483324;28;20044;-76
2023/02/07 06:31:59;;;;;;;58.50;25.83;;;;;;;-5.71;68.34;100078.56;10483172;28;20479;-76
2023/02/07 06:37:19;;;;;;;57.13;26.85;;;;;;;-5.59;68.42;100075.91;10469001;28;20040;-76
2023/02/07 06:42:40;;;;;;;55.67;25.55;;;;;;;-5.29;68.47;100073.94;10483182;28;20490;-76
2023/02/07 06:48:01;;;;;;;55.22;27.08;;;;;;;-3.53;67.78;100068.88;10469204;28;20098;-77
2023/02/07 06:53:21;;;;;;;51.70;25.85;;;;;;;-1.22;65.37;100063.78;10482723;28;20048;-76
2023/02/07 06:58:42;;;;;;;57.70;28.13;;;;;;;0.99;62.44;100058.59;10468644;28;20094;-77
2023/02/07 07:04:03;;;;;;;47.03;27.45;;;;;;;2.83;62.16;100063.16;10469853;28;20055;-76
2023/02/07 07:09:24;;;;;;;52.95;30.05;;;;;;;4.41;58.78;100063.00;10476036;28;20071;-77
2023/02/07 07:14:45;;;;;;;55.55;32.63;;;;;;;5.68;55.09;100060.91;10448607;28;20414;-77
2023/02/07 07:20:06;;;;;;;53.47;33.78;;;;;;;7.40;54.21;100061.41;10476050;28;20052;-77
2023/02/07 07:25:27;;;;;;;53.15;33.17;;;;;;;8.79;51.87;100071.56;10462385;28;20037;-79
2023/02/07 07:30:48;;;;;;;54.47;32.65;;;;;;;9.56;49.75;100076.50;10487595;28;20048;-78
2023/02/07 07:36:09;;;;;;;54.10;33.33;;;;;;;10.43;35.28;100087.88;10506966;28;20041;-76
2023/02/07 07:41:30;;;;;;;51.53;33.67;;;;;;;10.40;34.97;100080.56;10475716;28;20041;-75
2023/02/07 07:46:51;;;;;;;52.40;32.88;;;;;;;10.52;38.74;100095.81;10447941;28;20051;-76
2023/02/07 07:52:12;;;;;;;49.55;32.95;;;;;;;11.47;39.31;100104.88;10476066;28;20036;-76
2023/02/07 07:57:33;;;;;;;49.30;32.08;;;;;;;12.70;34.57;100106.50;10476313;28;20033;-76
2023/02/07 08:02:54;;;;;;;44.00;32.03;;;;;;;12.93;37.05;100112.94;10476623;28;20102;-76
2023/02/07 08:08:15;;;;;;;49.83;33.13;;;;;;;11.22;38.10;100112.09;10476958;28;20037;-76
2023/02/07 08:13:36;;;;;;;46.25;32.92;;;;;;;14.68;30.56;100114.38;10473234;28;20040;-75
2023/02/07 08:18:58;;;;;;;46.88;31.80;;;;;;;19.76;30.06;100127.66;10476279;28;20041;-76
2023/02/07 08:24:18;;;;;;;47.25;32.17;;;;;;;21.78;27.20;100104.59;10488545;28;20051;-75
2023/02/07 08:29:39;;;;;;;41.95;30.38;;;;;;;22.89;22.08;100101.16;10459568;28;20044;-75
2023/02/07 08:35:00;;;;;;;42.30;28.88;;;;;;;20.17;22.87;100097.91;10459151;28;20045;-74
2023/02/07 08:40:21;;;;;;;44.60;29.30;;;;;;;16.16;23.85;100095.41;10501629;28;20094;-75
2023/02/07 08:45:46;;;;;;;41.28;28.50;;;;;;;17.16;24.83;100095.75;10473037;28;20101;-75
2023/02/07 08:51:07;;;;;;;39.10;27.88;;;;;;;23.03;21.57;100088.41;10472527;28;20067;-75
2023/02/07 08:56:28;;;;;;;34.88;25.63;;;;;;;24.11;17.79;100107.69;10472334;28;20106;-75
2023/02/07 09:01:50;;;;;;;33.55;25.48;;;;;;;24.76;16.87;100108.09;10472248;28;20101;-75
2023/02/07 09:07:11;;;;;;;35.97;26.23;;;;;;;24.97;14.68;100101.97;10472067;28;20110;-75
2023/02/07 09:12:33;;;;;;;30.33;25.45;;;;;;;24.33;13.65;100110.97;10457973;28;20036;-75
2023/02/07 09:17:53;;;;;;;34.25;27.23;;;;;;;26.01;13.03;100109.59;10472168;28;20036;-75
2023/02/07 09:23:18;;;;;;;33.92;25.77;;;;;;;25.51;13.80;100110.91;10471365;28;20044;-75
2023/02/07 09:28:40;;;;;;;29.48;23.90;;;;;;;26.58;14.00;100122.75;10484942;28;20482;-75
2023/02/07 09:34:01;;;;;;;32.00;26.95;;;;;;;27.85;12.39;100123.41;10484978;28;20106;-75
2023/02/07 09:39:23;;;;;;;32.35;25.80;;;;;;;27.21;13.01;100119.56;10471396;28;20041;-76
2023/02/07 09:44:56;;;;;;;27.20;22.80;;;;;;;28.13;11.56;100126.56;10470936;28;20045;-75
2023/02/07 09:50:20;;;;;;;29.13;23.15;;;;;;;27.89;12.68;100121.44;10498836;28;20060;-76
2023/02/07 09:55:45;;;;;;;29.52;24.95;;;;;;;28.68;10.31;100129.19;10470320;28;20044;-75
2023/02/07 10:01:18;;;;;;;29.85;24.42;;;;;;;28.22;10.90;100119.72;10470147;28;20044;-76
2023/02/07 10:06:40;;;;;;;32.95;26.35;;;;;;;27.73;11.61;100115.09;10430862;28;21227;-76
2023/02/07 10:12:19;;;;;;;;;;;;;;;28.68;9.91;100111.97;10456285;28;20116;-75
2023/02/07 10:18:29;;;;;;;23.63;20.42;;;;;;;23.54;12.40;100105.41;10428331;28;19951;-75
2023/02/07 10:24:08;;;;;;;21.38;19.00;;;;;;;18.96;15.25;100099.44;10430069;28;20061;-76
2023/02/07 10:29:35;;;;;;;22.58;19.20;;;;;;;17.24;17.78;100092.81;10482524;28;20036;-76
2023/02/07 10:35:00;;;;;;;24.73;20.15;;;;;;;20.49;16.38;100092.94;10482861;28;20389;-76
2023/02/07 10:40:24;;;;;;;24.33;20.15;;;;;;;23.54;13.96;100094.00;10485263;28;20418;-75
2023/02/07 10:45:45;;;;;;;25.15;20.42;;;;;;;20.10;15.89;100070.50;10491888;28;20047;-75
2023/02/07 10:51:34;;;;;;;29.92;22.90;;;;;;;23.14;14.07;100067.66;10492121;28;20037;-75
2023/02/07 10:57:00;;;;;;;32.47;24.85;;;;;;;23.05;13.31;100079.25;10491899;28;20059;-76
2023/02/07 11:02:31;;;;;;;30.20;21.45;;;;;;;17.85;15.51;100067.22;10458344;28;20056;-75
2023/02/07 11:08:21;;;;;;;27.67;19.55;;;;;;;15.20;18.39;100064.03;10491195;28;20505;-76
2023/02/07 11:13:49;;;;;;;31.67;21.67;;;;;;;14.52;19.04;100069.44;10469046;28;20045;-74
2023/02/07 11:19:16;;;;;;;31.58;21.63;;;;;;;13.80;19.21;100061.53;10469228;28;20536;-76
2023/02/07 11:24:37;;;;;;;37.03;25.45;;;;;;;13.04;20.63;100055.81;10480527;28;20045;-77
2023/02/07 11:29:59;;;;;;;31.58;21.58;;;;;;;12.94;21.09;100052.81;10477822;28;20061;-77
2023/02/07 11:35:20;;;;;;;34.85;21.98;;;;;;;12.53;21.07;100060.09;10450795;28;20041;-78
2023/02/07 11:40:41;;;;;;;33.40;22.02;;;;;;;12.00;21.37;100041.00;10476364;28;20482;-75
2023/02/07 11:46:09;;;;;;;33.38;21.65;;;;;;;11.68;21.98;100044.09;10489825;28;20052;-75
2023/02/07 11:51:31;;;;;;;36.88;23.33;;;;;;;11.11;23.06;100035.59;10492436;28;20051;-77
2023/02/07 11:56:59;;;;;;;32.53;20.85;;;;;;;10.07;23.93;100035.25;10492493;28;20090;-77
2023/02/07 12:02:24;;;;;;;32.90;22.15;;;;;;;9.54;24.83;100028.88;10503314;28;20048;-77
2023/02/07 12:07:48;;;;;;;35.70;22.23;;;;;;;9.61;24.92;100009.47;10505907;28;20115;-77
2023/02/07 12:13:36;;;;;;;36.55;22.23;;;;;;;9.74;26.35;100005.94;10506046;28;20044;-76
2023/02/07 12:19:04;;;;;;;33.47;22.95;;;;;;;9.39;25.95;100010.63;10480708;28;20044;-77
2023/02/07 12:24:27;;;;;;;36.53;23.60;;;;;;;9.18;27.39;100016.03;10477256;28;20498;-76
2023/02/07 12:29:59;;;;;;;36.10;23.17;;;;;;;8.63;26.89;100020.41;10474059;28;20090;-77
2023/02/07 12:35:40;;;;;;;43.60;26.98;;;;;;;8.17;29.29;100016.66;10475531;28;20127;-76
2023/02/07 12:41:23;;;;;;;39.88;25.20;;;;;;;7.57;29.40;100007.69;10492110;28;20055;-76
2023/02/07 12:46:57;;;;;;;45.80;26.75;;;;;;;7.04;31.08;100002.31;10459500;28;20044;-76
2023/02/07 12:52:38;;;;;;;41.58;25.83;;;;;;;6.95;30.21;99993.56;10459616;28;20410;-76
2023/02/07 12:58:24;;;;;;;41.28;24.95;;;;;;;7.08;32.92;100000.03;10475692;28;20059;-76
2023/02/07 13:04:00;;;;;;;37.58;24.45;;;;;;;7.06;31.82;99990.72;10474476;28;20059;-76
2023/02/07 13:10:00;;;;;;;38.88;22.88;;;;;;;6.66;32.50;99989.47;10486251;28;20529;-76
2023/02/07 13:15:23;;;;;;;34.33;20.75;;;;;;;6.41;32.91;99981.06;10501869;28;20041;-76
2023/02/07 13:20:47;;;;;;;34.53;20.08;;;;;;;6.38;31.96;99981.34;10472169;28;20053;-76
2023/02/07 13:26:13;;;;;;;35.65;21.58;;;;;;;6.27;33.42;99993.22;10486606;28;20098;-76
2023/02/07 13:32:00;;;;;;;34.67;20.58;;;;;;;6.37;34.16;99991.69;10474054;28;20037;-76
2023/02/07 13:37:23;;;;;;;30.27;19.25;;;;;;;6.17;33.32;100005.88;10458801;28;20055;-76
2023/02/07 13:43:09;;;;;;;34.63;20.00;;;;;;;6.03;33.47;99996.59;10457837;28;20048;-77
2023/02/07 13:48:43;;;;;;;28.85;17.85;;;;;;;6.04;33.66;99992.56;10473451;28;20049;-76
2023/02/07 13:54:29;;;;;;;27.65;16.75;;;;;;;5.89;33.63;99992.84;10500899;28;20036;-72
2023/02/07 14:00:26;;;;;;;25.33;15.52;;;;;;;5.84;33.42;99990.84;10498801;28;20041;-72
2023/02/07 14:05:48;;;;;;;26.33;15.98;;;;;;;5.83;33.36;99977.50;10498435;28;20520;-72
2023/02/07 14:11:36;;;;;;;24.63;15.43;;;;;;;5.65;33.66;99962.94;10469666;28;20475;-72
2023/02/07 14:16:58;;;;;;;27.27;15.50;;;;;;;5.44;33.66;99965.25;10498332;28;20045;-72
2023/02/07 14:22:20;;;;;;;26.20;14.02;;;;;;;5.28;34.07;99968.78;10483269;28;20044;-73
2023/02/07 14:28:02;;;;;;;24.02;13.20;;;;;;;5.27;33.75;99958.97;10469684;28;20466;-74
2023/02/07 14:33:34;;;;;;;22.65;12.75;;;;;;;5.09;33.92;99954.69;10485750;28;20041;-72
2023/02/07 14:39:26;;;;;;;27.50;12.93;;;;;;;4.89;34.00;99952.19;10469587;28;20048;-74
2023/02/07 14:44:47;;;;;;;22.13;12.82;;;;;;;4.75;34.05;99944.91;10483268;28;20497;-77
2023/02/07 14:50:08;;;;;;;20.77;12.70;;;;;;;4.39;34.38;99943.84;10466813;28;20040;-79
2023/02/07 14:55:34;;;;;;;21.13;12.00;;;;;;;4.15;34.74;99947.03;10488992;28;20040;-78
2023/02/07 15:00:57;;;;;;;19.95;11.32;;;;;;;4.02;34.67;99937.19;10524948;28;20044;-79
2023/02/07 15:06:20;;;;;;;10.63;5.95;;;;;;;4.01;34.12;99934.94;10473463;28;20495;-79
2023/02/07 15:11:58;;;;;;;14.60;8.50;;;;;;;3.76;34.37;99936.59;10469777;28;20048;-78
2023/02/07 15:17:31;;;;;;;17.17;10.10;;;;;;;3.45;34.51;99929.91;10486120;28;20101;-78
2023/02/07 15:23:06;;;;;;;17.92;10.30;;;;;;;3.13;34.53;99945.03;10513759;28;20051;-78
2023/02/07 15:28:28;;;;;;;14.90;9.00;;;;;;;2.95;35.06;99937.84;10504607;28;20485;-79
2023/02/07 15:33:57;;;;;;;15.25;9.40;;;;;;;2.86;34.79;99946.31;10503483;28;20379;-78
2023/02/07 15:39:22;;;;;;;16.88;10.25;;;;;;;2.72;35.36;99958.25;10519191;28;20448;-77
2023/02/07 15:44:51;;;;;;;18.02;9.95;;;;;;;2.61;35.00;99947.13;10518975;28;20507;-78
2023/02/07 15:50:23;;;;;;;27.77;11.07;;;;;;;2.36;35.84;99945.84;10526258;28;20040;-74
2023/02/07 15:55:46;;;;;;;16.42;9.77;;;;;;;2.16;35.76;99950.16;10514020;28;20389;-74
2023/02/07 16:01:21;;;;;;;20.98;11.93;;;;;;;1.96;36.48;99955.69;10520729;28;20047;-74
2023/02/07 16:07:01;;;;;;;21.13;11.82;;;;;;;1.68;36.79;99960.84;10468761;28;20548;-74
2023/02/07 16:12:29;;;;;;;23.98;11.73;;;;;;;1.52;37.33;99962.13;10481481;28;20044;-74
2023/02/07 16:17:51;;;;;;;38.03;14.50;;;;;;;1.41;37.69;99967.47;10496077;28;20044;-77
2023/02/07 16:23:11;;;;;;;24.75;13.63;;;;;;;1.29;38.19;99983.06;10494206;28;20052;-77
2023/02/07 16:28:32;;;;;;;24.70;13.55;;;;;;;1.16;38.74;99990.88;10455527;28;20102;-74
2023/02/07 16:33:53;;;;;;;31.95;17.40;;;;;;;1.07;39.31;99997.25;10466101;28;20049;-74
2023/02/07 16:39:14;;;;;;;25.08;14.70;;;;;;;0.96;39.69;99999.03;10501348;28;20055;-76
2023/02/07 16:44:35;;;;;;;24.90;13.98;;;;;;;0.86;40.67;100007.38;10486901;28;20041;-76
2023/02/07 16:49:57;;;;;;;28.17;15.57;;;;;;;0.77;40.28;100004.75;10486882;28;20036;-78
2023/02/07 16:55:19;;;;;;;24.38;14.30;;;;;;;0.63;41.10;100010.97;10500567;28;20471;-78
2023/02/07 17:00:40;;;;;;;33.85;18.05;;;;;;;0.59;41.07;100015.16;10486351;28;20079;-76
2023/02/07 17:06:03;;;;;;;35.40;17.98;;;;;;;0.59;40.94;100035.16;10527926;28;20135;-75
2023/02/07 17:11:25;;;;;;;37.90;18.63;;;;;;;0.51;40.88;100029.25;10527602;28;20197;-75
2023/02/07 17:16:46;;;;;;;32.72;17.92;;;;;;;0.42;41.50;100034.06;10513400;28;20391;-75
2023/02/07 17:22:07;;;;;;;33.30;17.88;;;;;;;0.34;41.75;100035.66;10527072;28;20543;-75
2023/02/07 17:27:27;;;;;;;36.15;17.15;;;;;;;0.25;42.92;100040.00;10498967;28;20112;-77
2023/02/07 17:32:48;;;;;;;35.92;19.35;;;;;;;0.16;43.00;100048.28;10512743;28;20444;-76
2023/02/07 17:38:09;;;;;;;32.85;18.98;;;;;;;0.08;42.54;100049.88;10512469;28;20051;-77
2023/02/07 17:43:33;;;;;;;34.27;19.33;;;;;;;-0.01;43.83;100058.16;10527019;28;20051;-78
2023/02/07 17:48:54;;;;;;;37.70;19.77;;;;;;;-0.04;42.77;100042.63;10497869;28;20047;-78
2023/02/07 17:54:15;;;;;;;32.47;17.38;;;;;;;-0.07;43.86;100046.31;10477130;28;20098;-76
2023/02/07 17:59:36;;;;;;;32.67;18.60;;;;;;;-0.16;43.92;100043.63;10484596;28;20048;-75
2023/02/07 18:04:57;;;;;;;33.33;18.42;;;;;;;-0.24;43.59;100043.19;10486630;28;20060;-75
2023/02/07 18:10:29;;;;;;;31.02;16.58;;;;;;;-0.28;44.09;100036.38;10522777;28;20036;-74
2023/02/07 18:15:50;;;;;;;31.05;15.85;;;;;;;-0.35;44.84;100040.22;10511747;28;20054;-74
2023/02/07 18:21:11;;;;;;;35.00;16.90;;;;;;;-0.45;45.06;100047.72;10511166;28;20394;-74
2023/02/07 18:26:33;;;;;;;32.30;17.80;;;;;;;-0.47;45.85;100047.44;10505083;28;20044;-75
2023/02/07 18:31:54;;;;;;;34.80;19.38;;;;;;;-0.52;45.43;100048.06;10510753;28;20051;-74
2023/02/07 18:37:15;;;;;;;33.88;18.05;;;;;;;-0.60;46.42;100058.59;10538637;28;20044;-74
2023/02/07 18:42:37;;;;;;;34.22;19.15;;;;;;;-0.63;46.08;100051.28;10470013;28;20071;-75
2023/02/07 18:47:58;;;;;;;36.25;18.88;;;;;;;-0.71;45.75;100043.84;10469167;28;20040;-74
2023/02/07 18:53:19;;;;;;;39.47;21.50;;;;;;;-0.76;47.58;100049.97;10468625;28;20394;-75
2023/02/07 18:58:41;;;;;;;44.97;22.75;;;;;;;-0.84;47.72;100043.28;10469234;28;20066;-74
2023/02/07 19:04:05;;;;;;;52.25;24.38;;;;;;;-0.86;48.08;100032.78;10491047;28;20399;-74
2023/02/07 19:09:26;;;;;;;53.50;25.35;;;;;;;-0.92;48.55;100038.13;10463205;28;20044;-74
2023/02/07 19:14:47;;;;;;;51.58;24.92;;;;;;;-0.97;48.54;100037.97;10449000;28;20440;-74
2023/02/07 19:20:09;;;;;;;49.35;24.77;;;;;;;-1.07;49.24;100041.97;10462569;28;20127;-74
2023/02/07 19:25:30;;;;;;;47.58;23.48;;;;;;;-1.16;49.70;100040.00;10476168;28;20045;-74
2023/02/07 19:30:51;;;;;;;51.15;26.75;;;;;;;-1.22;50.03;100033.63;10462389;28;20049;-74
2023/02/07 19:36:12;;;;;;;54.90;28.10;;;;;;;-1.30;48.86;100030.44;10462178;28;20045;-75
2023/02/07 19:41:34;;;;;;;54.10;27.83;;;;;;;-1.33;49.74;100041.56;10461985;28;20076;-74
2023/02/07 19:46:55;;;;;;;53.75;26.88;;;;;;;-1.38;49.91;100034.69;10448584;28;20053;-74
2023/02/07 19:52:22;;;;;;;55.03;28.00;;;;;;;-1.37;50.97;100033.47;10447844;28;20037;-74
2023/02/07 19:57:44;;;;;;;52.50;26.77;;;;;;;-1.38;50.78;100039.44;10448453;28;20048;-74
2023/02/07 20:03:04;;;;;;;56.22;27.90;;;;;;;-1.46;50.88;100044.44;10474420;28;20052;-74
2023/02/07 20:08:25;;;;;;;57.55;29.50;;;;;;;-1.49;51.14;100046.13;10474224;28;20036;-74
2023/02/07 20:13:49;;;;;;;56.97;27.90;;;;;;;-1.56;51.30;100051.16;10474058;28;20040;-75
2023/02/07 20:19:10;;;;;;;61.90;30.15;;;;;;;-1.59;51.35;100046.59;10516148;28;20054;-75
2023/02/07 20:24:31;;;;;;;55.20;28.95;;;;;;;-1.62;52.08;100036.56;10501711;28;20040;-75
2023/02/07 20:29:52;;;;;;;66.63;31.52;;;;;;;-1.71;53.38;100040.06;10501129;28;20042;-76
2023/02/07 20:35:13;;;;;;;67.45;30.55;;;;;;;-1.80;52.98;100037.31;10487192;28;20051;-75
2023/02/07 20:40:34;;;;;;;54.95;29.10;;;;;;;-1.78;52.15;100040.34;10514948;28;20040;-76
2023/02/07 20:46:06;;;;;;;52.67;27.15;;;;;;;-1.89;52.24;100051.75;10500687;28;20074;-77
2023/02/07 20:51:28;;;;;;;56.25;29.50;;;;;;;-1.90;53.67;100054.94;10515543;28;20052;-77
2023/02/07 20:56:52;;;;;;;53.60;26.65;;;;;;;-1.99;54.13;100065.88;10500829;28;20051;-77
2023/02/07 21:02:13;;;;;;;52.70;25.15;;;;;;;-1.95;53.42;100063.72;10500129;28;20459;-77
2023/02/07 21:07:34;;;;;;;54.42;27.88;;;;;;;-1.84;54.49;100066.78;10527738;28;20447;-76
2023/02/07 21:12:55;;;;;;;53.85;28.10;;;;;;;-1.86;54.63;100064.50;10485688;28;20465;-78
2023/02/07 21:18:16;;;;;;;59.50;28.25;;;;;;;-1.89;56.07;100064.66;10499486;28;20052;-76
2023/02/07 21:23:37;;;;;;;56.45;26.17;;;;;;;-1.87;54.19;100064.97;10498971;28;20055;-78
2023/02/07 21:28:59;;;;;;;60.58;29.48;;;;;;;-1.91;54.63;100069.84;10499183;28;20040;-76
2023/02/07 21:34:21;;;;;;;57.17;28.13;;;;;;;-1.96;55.45;100073.16;10498941;28;20048;-77
2023/02/07 21:39:42;;;;;;;57.42;27.63;;;;;;;-2.02;55.10;100078.50;10513028;28;20522;-77
2023/02/07 21:45:03;;;;;;;58.70;27.92;;;;;;;-2.10;55.25;100074.50;10484906;28;20040;-76
2023/02/07 21:50:25;;;;;;;58.92;27.25;;;;;;;-2.06;55.47;100075.13;10512545;28;20051;-76
2023/02/07 21:55:45;;;;;;;52.25;26.08;;;;;;;-2.06;56.16;100078.63;10498121;28;20048;-77
2023/02/07 22:01:17;;;;;;;60.70;28.80;;;;;;;-2.05;56.21;100074.66;10484288;28;20102;-76
2023/02/07 22:06:40;;;;;;;63.55;29.77;;;;;;;-2.12;55.76;100076.94;10483744;28;20052;-76
2023/02/07 22:12:01;;;;;;;56.67;28.35;;;;;;;-2.16;56.88;100081.78;10512236;28;20044;-76
2023/02/07 22:17:22;;;;;;;59.90;26.95;;;;;;;-2.18;57.17;100087.72;10497300;28;20040;-76
2023/02/07 22:22:43;;;;;;;56.40;27.17;;;;;;;-2.24;56.93;100084.03;10497467;28;20402;-76
2023/02/07 22:28:04;;;;;;;50.83;26.85;;;;;;;-2.28;56.39;100088.91;10496723;28;20043;-76
2023/02/07 22:33:25;;;;;;;54.63;27.63;;;;;;;-2.34;57.21;100077.00;10524595;28;20036;-76
2023/02/07 22:38:46;;;;;;;53.17;26.25;;;;;;;-2.27;57.40;100076.72;10496763;28;20047;-76
2023/02/07 22:44:07;;;;;;;49.60;25.00;;;;;;;-2.26;57.26;100074.75;10496798;28;20044;-76
2023/02/07 22:49:30;;;;;;;53.05;26.45;;;;;;;-2.29;57.69;100075.66;10497309;28;20040;-76
2023/02/07 22:54:51;;;;;;;57.00;27.90;;;;;;;-2.33;57.65;100071.09;10496265;28;20066;-76
2023/02/07 23:00:12;;;;;;;49.10;24.65;;;;;;;-2.38;58.03;100076.41;10482936;28;20041;-77
2023/02/07 23:05:36;;;;;;;57.58;28.38;;;;;;;-2.49;57.99;100076.06;10490288;28;20052;-76
2023/02/07 23:10:57;;;;;;;56.80;26.00;;;;;;;-2.55;58.40;100067.66;10510398;28;20036;-77
2023/02/07 23:16:19;;;;;;;52.38;26.55;;;;;;;-2.60;58.64;100063.56;10496119;28;20059;-76
2023/02/07 23:21:41;;;;;;;53.15;26.45;;;;;;;-2.57;58.36;100064.63;10510098;28;20040;-76
2023/02/07 23:27:02;;;;;;;52.55;25.20;;;;;;;-2.64;58.72;100054.72;10510264;28;20142;-76
2023/02/07 23:32:22;;;;;;;46.22;24.80;;;;;;;-2.71;59.58;100060.44;10510002;28;20049;-76
2023/02/07 23:37:43;;;;;;;47.38;23.67;;;;;;;-2.70;59.38;100051.06;10523662;28;20040;-76
2023/02/07 23:43:04;;;;;;;43.83;22.48;;;;;;;-2.72;58.85;100047.22;10495560;28;20398;-76
2023/02/07 23:48:25;;;;;;;49.65;23.83;;;;;;;-2.79;59.78;100048.28;10515225;28;20040;-76
2023/02/07 23:53:46;;;;;;;45.72;23.63;;;;;;;-2.85;59.48;100057.50;10502863;28;20101;-76
2023/02/07 23:59:08;;;;;;;47.80;23.50;;;;;;;-2.93;59.58;100067.91;10517267;28;20051;-76
